Maple Heights, Iowa
Current Conditions -  °F | °C
As of 9:55 AM on Friday 28 Nov 2014 (Local Time) from KCCY Reporting Station
Clear Clear  
Wind Chill:   Ceiling: Unl
Heat Index: 18°   Visibility: 10mi
Dew Point: 12°   Wind: 12mph
Humidity: 79%   Direction: 150°SSE
Pressure: 29.97"   Gusts: NA
Location:  43.0699°N, 92.7147°W
Report Text: KCCY 281555Z AUTO 15010KT 10SM CLR M08/M11 A2997 RMK AO2
Loading
Personal Weather Stations






























Interactive Weather Map New forecast layout! Learn more

10-Day Weather Forecast

Advertisements
Track Severe Weather on mobile